createdAt,value
2022-08-30T00:01:29.636Z,8.60
2022-08-30T00:03:58.445Z,8.23
2022-08-30T00:06:27.137Z,8.52
2022-08-30T00:08:55.385Z,8.75
2022-08-30T00:11:25.154Z,8.48
2022-08-30T00:13:55.092Z,9.20
2022-08-30T00:16:23.328Z,11.18
2022-08-30T00:18:50.430Z,10.02
2022-08-30T00:21:21.184Z,10.75
2022-08-30T00:23:47.991Z,10.73
2022-08-30T00:26:14.914Z,10.90
2022-08-30T00:28:41.802Z,9.23
2022-08-30T00:31:08.776Z,9.63
2022-08-30T00:33:35.660Z,10.20
2022-08-30T00:36:03.322Z,9.65
2022-08-30T00:38:30.167Z,9.27
2022-08-30T00:40:57.425Z,9.73
2022-08-30T00:43:28.315Z,10.05
2022-08-30T00:45:55.937Z,10.18
2022-08-30T00:48:23.042Z,10.88
2022-08-30T00:50:54.332Z,10.50
2022-08-30T00:53:25.870Z,10.95
2022-08-30T00:55:53.945Z,10.43
2022-08-30T00:58:29.293Z,11.05
2022-08-30T01:00:58.448Z,11.90
2022-08-30T01:03:25.463Z,11.57
2022-08-30T01:05:53.432Z,11.32
2022-08-30T01:08:24.330Z,12.20
2022-08-30T01:10:52.928Z,12.07
2022-08-30T01:13:22.692Z,11.30
2022-08-30T01:15:50.729Z,12.10
2022-08-30T01:18:18.909Z,11.32
2022-08-30T01:21:10.968Z,12.02
2022-08-30T01:23:43.417Z,11.27
2022-08-30T01:26:13.039Z,11.75
2022-08-30T01:28:45.926Z,11.40
2022-08-30T01:31:12.948Z,11.68
2022-08-30T01:33:40.280Z,11.43
2022-08-30T01:36:13.397Z,11.57
2022-08-30T01:38:50.883Z,12.35
2022-08-30T01:41:24.326Z,12.30
2022-08-30T01:43:55.270Z,11.57
2022-08-30T01:46:27.944Z,12.27
2022-08-30T01:48:56.981Z,12.30
2022-08-30T01:51:28.402Z,12.60
2022-08-30T01:53:56.377Z,12.60
2022-08-30T01:56:24.977Z,11.73
2022-08-30T01:58:53.209Z,10.90
2022-08-30T02:01:23.452Z,12.20
2022-08-30T02:03:50.435Z,11.40
2022-08-30T02:06:19.936Z,12.40
2022-08-30T02:08:47.454Z,11.98
2022-08-30T02:11:14.969Z,12.05
2022-08-30T02:13:44.178Z,11.25
2022-08-30T02:16:16.127Z,11.82
2022-08-30T02:18:43.757Z,11.35
2022-08-30T02:21:12.257Z,11.77
2022-08-30T02:23:39.358Z,11.45
2022-08-30T02:26:06.607Z,10.63
2022-08-30T02:28:33.547Z,10.95
2022-08-30T02:31:00.841Z,10.75
2022-08-30T02:33:29.065Z,11.15
2022-08-30T02:35:57.315Z,10.70
2022-08-30T02:38:24.907Z,10.48
2022-08-30T02:40:52.171Z,10.68
2022-08-30T02:43:19.461Z,10.75
2022-08-30T02:45:47.657Z,10.90
2022-08-30T02:48:15.829Z,11.43
2022-08-30T02:50:45.175Z,10.30
2022-08-30T02:53:16.320Z,11.73
2022-08-30T02:55:43.661Z,11.25
2022-08-30T02:58:11.018Z,11.27
2022-08-30T03:00:39.392Z,10.93
2022-08-30T03:03:07.794Z,11.85
2022-08-30T03:05:35.197Z,12.07
2022-08-30T03:08:04.986Z,11.93
2022-08-30T03:10:31.979Z,12.52
2022-08-30T03:12:59.133Z,11.88
2022-08-30T03:15:26.027Z,11.77
2022-08-30T03:17:53.898Z,11.40
2022-08-30T03:20:22.156Z,11.82
2022-08-30T03:22:49.439Z,11.05
2022-08-30T03:25:17.288Z,11.25
2022-08-30T03:27:44.109Z,10.88
2022-08-30T03:30:12.134Z,11.00
2022-08-30T03:32:40.816Z,11.45
2022-08-30T03:35:10.911Z,11.00
2022-08-30T03:37:37.748Z,10.85
2022-08-30T03:40:07.618Z,11.00
2022-08-30T03:42:35.364Z,11.30
2022-08-30T03:45:03.748Z,12.40
2022-08-30T03:47:31.043Z,10.25
2022-08-30T03:49:58.081Z,11.82
2022-08-30T03:52:24.938Z,11.48
2022-08-30T03:54:51.790Z,10.73
2022-08-30T03:57:19.866Z,11.45
2022-08-30T03:59:47.199Z,11.95
2022-08-30T04:02:14.155Z,11.93
2022-08-30T04:04:40.967Z,11.65
2022-08-30T04:07:07.768Z,11.68
2022-08-30T04:09:34.604Z,11.00
2022-08-30T04:12:01.528Z,11.00
2022-08-30T04:14:28.487Z,10.82
2022-08-30T04:16:55.379Z,11.38
2022-08-30T04:19:22.268Z,10.93
2022-08-30T04:21:49.711Z,10.95
2022-08-30T04:24:17.028Z,10.85
2022-08-30T04:26:43.835Z,10.23
2022-08-30T04:29:12.338Z,11.30
2022-08-30T04:31:39.194Z,10.77
2022-08-30T04:34:06.063Z,11.80
2022-08-30T04:36:33.516Z,11.32
2022-08-30T04:39:01.805Z,11.70
2022-08-30T04:41:28.652Z,11.82
2022-08-30T04:43:55.846Z,11.77
2022-08-30T04:46:23.655Z,12.27
2022-08-30T04:48:50.458Z,11.68
2022-08-30T04:51:18.261Z,12.40
2022-08-30T04:53:45.395Z,12.55
2022-08-30T04:56:18.119Z,13.65
2022-08-30T04:58:47.130Z,13.93
2022-08-30T05:01:18.975Z,12.73
2022-08-30T05:03:48.640Z,12.52
2022-08-30T05:06:16.655Z,13.25
2022-08-30T05:08:46.125Z,13.88
2022-08-30T05:11:15.499Z,14.25
2022-08-30T05:13:43.125Z,13.95
2022-08-30T05:16:10.765Z,13.00
2022-08-30T05:18:37.734Z,13.18
2022-08-30T05:21:05.863Z,12.20
2022-08-30T05:23:53.873Z,13.00
2022-08-30T05:26:25.118Z,12.75
2022-08-30T05:28:52.768Z,11.93
2022-08-30T05:31:25.270Z,10.90
2022-08-30T05:33:54.377Z,11.63
2022-08-30T05:36:25.240Z,11.98
2022-08-30T05:38:53.231Z,11.40
2022-08-30T05:41:22.375Z,10.55
2022-08-30T05:43:54.684Z,11.95
2022-08-30T05:46:22.133Z,11.10
2022-08-30T05:48:49.645Z,12.77
2022-08-30T05:51:28.544Z,12.38
2022-08-30T05:53:56.865Z,10.30
2022-08-30T05:56:28.867Z,9.63
2022-08-30T05:58:55.780Z,10.00
2022-08-30T06:01:34.976Z,9.70
2022-08-30T06:04:04.346Z,10.15
2022-08-30T06:06:33.535Z,9.68
2022-08-30T06:09:01.399Z,9.60
2022-08-30T06:11:31.977Z,9.30
2022-08-30T06:14:05.552Z,8.13
2022-08-30T06:16:39.896Z,9.07
2022-08-30T06:19:11.165Z,8.55
2022-08-30T06:21:39.945Z,7.95
2022-08-30T06:24:10.529Z,6.63
2022-08-30T06:26:43.598Z,6.13
2022-08-30T06:29:13.677Z,6.22
2022-08-30T06:31:40.611Z,6.40
2022-08-30T06:34:07.565Z,6.93
2022-08-30T06:36:34.780Z,6.97
2022-08-30T06:39:01.816Z,6.82
2022-08-30T06:41:31.042Z,6.85
2022-08-30T06:44:00.497Z,5.70
2022-08-30T06:46:30.309Z,5.50
2022-08-30T06:48:57.598Z,4.70
2022-08-30T06:51:27.649Z,5.00
2022-08-30T06:53:54.870Z,4.50
2022-08-30T06:56:22.606Z,4.35
2022-08-30T06:58:50.436Z,4.38
2022-08-30T07:01:26.801Z,4.15
2022-08-30T07:03:54.089Z,4.38
2022-08-30T07:06:21.495Z,4.03
2022-08-30T07:08:50.624Z,3.75
2022-08-30T07:11:35.743Z,3.50
2022-08-30T07:14:06.887Z,3.60
2022-08-30T07:16:34.582Z,3.35
2022-08-30T07:19:03.124Z,3.50
2022-08-30T07:21:33.988Z,4.10
2022-08-30T07:24:01.041Z,3.92
2022-08-30T07:26:35.272Z,3.72
2022-08-30T07:29:02.746Z,4.15
2022-08-30T07:31:30.191Z,4.03
2022-08-30T07:33:57.619Z,4.75
2022-08-30T07:36:25.314Z,4.30
2022-08-30T07:38:52.774Z,3.47
2022-08-30T07:41:24.395Z,3.70
2022-08-30T07:43:51.682Z,3.90
2022-08-30T07:46:19.353Z,4.18
2022-08-30T07:48:46.900Z,3.50
2022-08-30T07:51:17.095Z,4.03
2022-08-30T07:53:44.198Z,3.90
2022-08-30T07:56:11.491Z,4.07
2022-08-30T07:58:38.527Z,4.30
2022-08-30T08:01:08.209Z,4.38
2022-08-30T08:03:40.520Z,4.03
2022-08-30T08:06:10.220Z,4.15
2022-08-30T08:08:38.652Z,3.72
2022-08-30T08:11:13.113Z,3.80
2022-08-30T08:13:50.636Z,4.47
2022-08-30T08:16:22.307Z,3.85
2022-08-30T08:18:49.523Z,4.25
2022-08-30T08:21:16.631Z,3.42
2022-08-30T08:23:43.785Z,3.67
2022-08-30T08:26:10.710Z,3.28
2022-08-30T08:28:37.523Z,3.28
2022-08-30T08:31:04.533Z,3.05
2022-08-30T08:33:31.461Z,3.40
2022-08-30T08:35:58.529Z,3.08
2022-08-30T08:38:25.447Z,2.75
2022-08-30T08:41:11.005Z,3.17
2022-08-30T08:43:38.588Z,2.65
2022-08-30T08:46:31.086Z,2.92
2022-08-30T08:49:04.881Z,2.95
2022-08-30T08:51:53.211Z,2.65
2022-08-30T08:54:38.759Z,2.60
2022-08-30T08:57:05.998Z,2.92
2022-08-30T08:59:32.819Z,2.90
2022-08-30T09:02:03.159Z,2.55
2022-08-30T09:04:35.192Z,2.60
2022-08-30T09:07:22.139Z,2.97
2022-08-30T09:09:49.056Z,2.65
2022-08-30T09:12:15.982Z,2.60
2022-08-30T09:14:55.619Z,2.35
2022-08-30T09:17:23.760Z,2.78
2022-08-30T09:19:53.645Z,2.65
2022-08-30T09:22:43.691Z,2.45
2022-08-30T09:25:15.683Z,2.40
2022-08-30T09:27:46.666Z,2.40
2022-08-30T09:30:27.494Z,2.60
2022-08-30T09:33:02.730Z,2.80
2022-08-30T09:35:42.781Z,2.42
2022-08-30T09:38:22.344Z,2.20
2022-08-30T09:40:58.842Z,2.47
2022-08-30T09:43:31.492Z,2.33
2022-08-30T09:46:01.388Z,2.28
2022-08-30T09:48:33.173Z,2.55
2022-08-30T09:51:11.886Z,2.17
2022-08-30T09:54:17.201Z,2.20
2022-08-30T09:57:12.556Z,2.00
2022-08-30T09:59:51.280Z,1.77
2022-08-30T10:02:48.465Z,2.20
2022-08-30T10:05:59.896Z,2.00
2022-08-30T10:08:52.999Z,1.80
2022-08-30T10:11:34.842Z,2.30
2022-08-30T10:14:29.303Z,2.20
2022-08-30T10:17:17.514Z,2.00
2022-08-30T10:19:57.110Z,2.00
2022-08-30T10:22:36.909Z,2.10
2022-08-30T10:25:09.285Z,1.70
2022-08-30T10:27:43.986Z,1.95
2022-08-30T10:30:16.663Z,1.80
2022-08-30T10:33:06.471Z,1.80
2022-08-30T10:35:41.136Z,2.10
2022-08-30T10:38:21.257Z,1.77
2022-08-30T10:41:14.059Z,1.60
2022-08-30T10:43:45.745Z,1.75
2022-08-30T10:46:29.785Z,1.75
2022-08-30T10:49:01.040Z,1.92
2022-08-30T10:51:43.425Z,2.03
2022-08-30T10:54:18.904Z,2.17
2022-08-30T10:56:49.618Z,1.75
2022-08-30T10:59:20.614Z,1.88
2022-08-30T11:02:18.606Z,1.70
2022-08-30T11:05:15.414Z,2.00
2022-08-30T11:08:01.349Z,2.05
2022-08-30T11:10:50.675Z,2.00
2022-08-30T11:13:25.553Z,1.55
2022-08-30T11:16:01.591Z,1.77
2022-08-30T11:19:02.383Z,2.47
2022-08-30T11:21:39.667Z,1.60
2022-08-30T11:24:29.138Z,1.60
2022-08-30T11:27:02.636Z,1.70
2022-08-30T11:29:40.848Z,1.80
2022-08-30T11:32:13.696Z,1.83
2022-08-30T11:34:46.693Z,2.20
2022-08-30T11:37:43.236Z,1.90
2022-08-30T11:40:49.327Z,1.77
2022-08-30T11:43:34.563Z,1.60
2022-08-30T11:46:28.503Z,1.48
2022-08-30T11:49:15.653Z,1.10
2022-08-30T11:55:03.677Z,1.40
2022-08-30T11:58:00.067Z,1.30
2022-08-30T12:00:34.971Z,1.60
2022-08-30T12:03:06.244Z,1.50
2022-08-30T12:05:38.194Z,1.63
2022-08-30T12:08:24.331Z,1.42
2022-08-30T12:11:00.085Z,1.10
2022-08-30T12:13:42.440Z,1.20
2022-08-30T12:16:14.457Z,1.35
2022-08-30T12:18:44.534Z,1.20
2022-08-30T12:21:45.265Z,1.17
2022-08-30T12:24:26.335Z,1.30
2022-08-30T12:26:55.137Z,1.20
2022-08-30T12:29:24.903Z,1.40
2022-08-30T12:31:53.614Z,1.50
2022-08-30T12:34:25.683Z,1.30
2022-08-30T12:36:58.433Z,1.30
2022-08-30T12:39:44.520Z,1.60
2022-08-30T12:42:24.566Z,1.25
2022-08-30T12:44:58.013Z,1.52
2022-08-30T12:47:31.035Z,1.40
2022-08-30T12:49:59.009Z,1.35
2022-08-30T12:52:40.032Z,1.35
2022-08-30T12:55:19.750Z,1.17
2022-08-30T12:58:00.809Z,1.35
2022-08-30T13:00:35.300Z,1.20
2022-08-30T13:03:30.089Z,1.42
2022-08-30T13:05:58.045Z,1.30
2022-08-30T13:08:38.981Z,1.60
2022-08-30T13:11:11.926Z,1.23
2022-08-30T13:13:45.131Z,1.52
2022-08-30T13:16:36.006Z,1.50
2022-08-30T13:19:34.428Z,1.40
2022-08-30T13:22:03.158Z,1.80
2022-08-30T13:24:30.336Z,1.70
2022-08-30T13:27:04.137Z,1.88
2022-08-30T13:29:31.975Z,2.03
2022-08-30T13:31:58.819Z,2.08
2022-08-30T13:34:25.839Z,2.03
2022-08-30T13:36:58.008Z,2.30
2022-08-30T13:39:25.397Z,2.38
2022-08-30T13:41:52.518Z,2.70
2022-08-30T13:44:19.578Z,2.30
2022-08-30T13:46:54.450Z,2.20
2022-08-30T13:49:44.329Z,2.00
2022-08-30T13:52:22.571Z,2.30
2022-08-30T13:54:55.392Z,2.10
2022-08-30T14:00:19.985Z,2.00
2022-08-30T14:02:54.646Z,2.47
2022-08-30T14:11:57.148Z,2.28
2022-08-30T14:14:39.254Z,2.60
2022-08-30T14:17:09.646Z,2.10
2022-08-30T14:19:36.596Z,2.10
2022-08-30T14:22:03.592Z,2.00
2022-08-30T14:24:30.483Z,1.63
2022-08-30T14:26:57.308Z,1.80
2022-08-30T14:29:26.305Z,1.80
2022-08-30T14:31:56.139Z,2.20
2022-08-30T14:34:28.783Z,1.95
2022-08-30T14:36:56.406Z,1.50
2022-08-30T14:39:23.316Z,1.73
2022-08-30T14:41:53.213Z,2.00
2022-08-30T14:44:21.891Z,1.67
2022-08-30T14:46:49.211Z,1.40
2022-08-30T14:49:18.499Z,1.65
2022-08-30T14:51:48.590Z,1.30
2022-08-30T14:54:21.148Z,1.30
2022-08-30T14:56:48.188Z,1.40
2022-08-30T14:59:16.388Z,1.40
2022-08-30T15:01:44.366Z,1.20
2022-08-30T15:04:14.283Z,1.10
2022-08-30T15:06:43.682Z,1.20
2022-08-30T15:09:15.118Z,1.20
2022-08-30T15:11:43.604Z,1.13
2022-08-30T15:14:15.844Z,0.95
2022-08-30T15:16:43.770Z,1.00
2022-08-30T15:19:11.852Z,1.17
2022-08-30T15:21:47.694Z,0.90
2022-08-30T15:24:19.091Z,0.95
2022-08-30T15:26:51.670Z,0.90
2022-08-30T15:29:20.084Z,0.73
2022-08-30T15:31:51.149Z,0.98
2022-08-30T15:34:21.192Z,1.00
2022-08-30T15:36:53.247Z,1.13
2022-08-30T15:39:20.388Z,0.90
2022-08-30T15:41:55.761Z,1.20
2022-08-30T15:44:25.638Z,1.15
2022-08-30T15:46:52.633Z,1.35
2022-08-30T15:49:22.387Z,1.20
2022-08-30T15:51:54.000Z,1.40
2022-08-30T15:54:23.745Z,1.30
2022-08-30T15:56:59.070Z,1.17
2022-08-30T15:59:27.825Z,1.30
2022-08-30T16:01:54.975Z,0.98
2022-08-30T16:04:24.412Z,1.30
2022-08-30T16:06:53.134Z,1.55
2022-08-30T16:09:20.107Z,1.30
2022-08-30T16:11:47.969Z,1.60
2022-08-30T16:14:15.086Z,1.70
2022-08-30T16:16:42.295Z,2.00
2022-08-30T16:19:09.676Z,1.80
2022-08-30T16:21:37.919Z,1.60
2022-08-30T16:24:13.660Z,1.70
2022-08-30T16:26:42.862Z,1.90
2022-08-30T16:29:10.876Z,1.67
2022-08-30T16:31:38.425Z,1.83
2022-08-30T16:34:06.697Z,2.08
2022-08-30T16:36:35.960Z,1.73
2022-08-30T16:39:06.026Z,2.13
2022-08-30T16:41:36.457Z,1.80
2022-08-30T16:44:03.822Z,1.77
2022-08-30T16:46:33.329Z,1.83
2022-08-30T16:49:05.256Z,1.52
2022-08-30T16:51:34.871Z,1.67
2022-08-30T16:54:07.706Z,1.63
2022-08-30T16:56:36.022Z,1.77
2022-08-30T16:59:05.300Z,2.20
2022-08-30T17:01:37.511Z,2.08
2022-08-30T17:04:08.338Z,1.98
2022-08-30T17:06:36.010Z,2.28
2022-08-30T17:09:07.180Z,1.95
2022-08-30T17:11:35.891Z,2.42
2022-08-30T17:14:03.511Z,2.35
2022-08-30T17:16:30.670Z,1.98
2022-08-30T17:18:59.863Z,2.10
2022-08-30T17:21:29.562Z,2.10
2022-08-30T17:24:01.627Z,2.10
2022-08-30T17:26:31.637Z,1.92
2022-08-30T17:28:58.664Z,1.90
2022-08-30T17:31:29.091Z,1.67
2022-08-30T17:34:04.224Z,1.65
2022-08-30T17:36:35.477Z,1.63
2022-08-30T17:39:10.673Z,1.55
2022-08-30T17:41:49.964Z,1.55
2022-08-30T17:44:19.831Z,1.40
2022-08-30T17:46:46.861Z,1.40
2022-08-30T17:49:13.947Z,1.20
2022-08-30T17:51:43.021Z,1.02
2022-08-30T17:54:12.722Z,1.30
2022-08-30T17:56:41.393Z,1.30
2022-08-30T17:59:10.794Z,1.30
2022-08-30T18:01:38.227Z,1.42
2022-08-30T18:04:05.982Z,1.52
2022-08-30T18:06:34.382Z,1.20
2022-08-30T18:09:02.702Z,1.63
2022-08-30T18:11:29.768Z,1.30
2022-08-30T18:13:59.296Z,1.13
2022-08-30T18:16:26.681Z,1.08
2022-08-30T18:18:57.279Z,1.00
2022-08-30T18:21:25.178Z,1.17
2022-08-30T18:23:52.426Z,1.30
2022-08-30T18:26:19.444Z,1.10
2022-08-30T18:28:51.555Z,1.10
2022-08-30T18:31:18.623Z,1.50
2022-08-30T18:33:47.675Z,1.60
2022-08-30T18:36:14.695Z,1.70
2022-08-30T18:38:42.912Z,1.13
2022-08-30T18:41:14.014Z,1.23
2022-08-30T18:43:42.423Z,1.48
2022-08-30T18:46:13.429Z,1.33
2022-08-30T18:48:41.958Z,1.40
2022-08-30T18:51:21.003Z,1.23
2022-08-30T18:53:49.503Z,1.40
2022-08-30T18:56:16.901Z,1.23
2022-08-30T18:58:45.970Z,1.17
2022-08-30T19:01:13.224Z,1.10
2022-08-30T19:03:41.856Z,1.33
2022-08-30T19:06:11.566Z,1.23
2022-08-30T19:08:45.818Z,1.67
2022-08-30T19:11:13.486Z,1.30
2022-08-30T19:13:40.442Z,1.50
2022-08-30T19:16:08.928Z,1.50
2022-08-30T19:18:39.685Z,1.48
2022-08-30T19:21:06.785Z,1.65
2022-08-30T19:23:42.752Z,2.10
2022-08-30T19:26:10.879Z,1.80
2022-08-30T19:28:38.824Z,2.00
2022-08-30T19:31:06.600Z,1.80
2022-08-30T19:33:34.657Z,1.50
2022-08-30T19:36:02.500Z,1.55
2022-08-30T19:38:29.368Z,1.60
2022-08-30T19:41:00.613Z,1.73
2022-08-30T19:43:28.554Z,2.00
2022-08-30T19:45:59.910Z,1.95
2022-08-30T19:48:32.779Z,1.67
2022-08-30T19:51:06.623Z,2.05
2022-08-30T19:53:34.610Z,1.90
2022-08-30T19:56:01.599Z,1.70
2022-08-30T19:58:30.320Z,1.80
2022-08-30T20:01:10.762Z,1.92
2022-08-30T20:03:40.049Z,2.00
2022-08-30T20:06:08.166Z,1.90
2022-08-30T20:08:36.254Z,1.77
2022-08-30T20:11:04.401Z,1.90
2022-08-30T20:13:33.925Z,1.98
2022-08-30T20:16:01.919Z,2.28
2022-08-30T20:18:29.565Z,2.00
2022-08-30T20:20:56.653Z,2.30
2022-08-30T20:23:25.438Z,2.35
2022-08-30T20:25:54.774Z,2.28
2022-08-30T20:28:21.926Z,2.17
2022-08-30T20:30:49.883Z,2.13
2022-08-30T20:33:18.429Z,2.53
2022-08-30T20:35:48.968Z,2.00
2022-08-30T20:38:23.842Z,2.33
2022-08-30T20:40:56.850Z,2.17
2022-08-30T20:43:26.909Z,2.28
2022-08-30T20:45:55.495Z,2.20
2022-08-30T20:48:23.622Z,2.53
2022-08-30T20:50:50.527Z,2.20
2022-08-30T20:53:17.987Z,2.03
2022-08-30T20:55:47.140Z,2.20
2022-08-30T20:58:15.228Z,2.10
2022-08-30T21:00:45.664Z,2.10
2022-08-30T21:03:26.198Z,2.00
2022-08-30T21:05:55.423Z,2.28
2022-08-30T21:08:22.406Z,2.10
2022-08-30T21:10:49.763Z,2.13
2022-08-30T21:13:17.292Z,2.45
2022-08-30T21:15:47.118Z,2.20
2022-08-30T21:18:15.100Z,2.17
2022-08-30T21:20:42.168Z,2.50
2022-08-30T21:23:09.582Z,2.58
2022-08-30T21:25:41.899Z,2.30
2022-08-30T21:28:09.279Z,2.70
2022-08-30T21:30:37.702Z,2.33
2022-08-30T21:33:06.600Z,2.30
2022-08-30T21:35:52.466Z,2.53
2022-08-30T21:38:20.194Z,2.70
2022-08-30T21:40:48.771Z,2.85
2022-08-30T21:43:16.209Z,2.60
2022-08-30T21:45:44.625Z,2.30
2022-08-30T21:48:13.059Z,2.55
2022-08-30T21:50:42.203Z,2.92
2022-08-30T21:53:09.884Z,2.60
2022-08-30T21:55:37.027Z,2.67
2022-08-30T21:58:04.379Z,2.50
2022-08-30T22:00:32.027Z,2.80
2022-08-30T22:02:58.987Z,2.50
2022-08-30T22:05:26.077Z,2.30
2022-08-30T22:07:53.127Z,2.50
2022-08-30T22:10:22.306Z,2.63
2022-08-30T22:12:52.022Z,2.10
2022-08-30T22:15:19.307Z,2.20
2022-08-30T22:17:46.758Z,2.10
2022-08-30T22:20:18.424Z,2.20
2022-08-30T22:22:45.871Z,2.47
2022-08-30T22:25:13.162Z,2.22
2022-08-30T22:27:40.406Z,2.40
2022-08-30T22:30:08.273Z,2.20
2022-08-30T22:32:38.251Z,2.47
2022-08-30T22:35:06.134Z,2.30
2022-08-30T22:37:34.226Z,2.13
2022-08-30T22:40:01.601Z,2.28
2022-08-30T22:42:29.480Z,2.30
2022-08-30T22:44:57.498Z,2.15
2022-08-30T22:47:24.874Z,2.42
2022-08-30T22:49:52.781Z,2.00
2022-08-30T22:52:22.114Z,1.88
2022-08-30T22:54:52.737Z,2.42
2022-08-30T22:57:20.083Z,1.98
2022-08-30T22:59:47.293Z,2.30
2022-08-30T23:02:14.481Z,2.20
2022-08-30T23:04:41.562Z,2.20
2022-08-30T23:07:08.703Z,2.10
2022-08-30T23:09:35.662Z,2.00
2022-08-30T23:12:02.706Z,2.58
2022-08-30T23:14:29.838Z,2.13
2022-08-30T23:16:56.749Z,2.28
2022-08-30T23:19:24.330Z,2.20
2022-08-30T23:21:51.266Z,2.35
2022-08-30T23:24:36.740Z,2.42
2022-08-30T23:27:22.999Z,2.10
2022-08-30T23:30:08.392Z,2.20
2022-08-30T23:32:54.125Z,2.30
2022-08-30T23:35:39.421Z,2.05
2022-08-30T23:38:26.384Z,2.35
2022-08-30T23:41:11.790Z,2.15
2022-08-30T23:43:57.275Z,2.22
2022-08-30T23:46:42.881Z,2.10
2022-08-30T23:49:28.522Z,2.22
2022-08-30T23:52:14.040Z,1.95
2022-08-30T23:54:59.708Z,2.50
2022-08-30T23:57:45.711Z,2.22
